Thermopolis, WY (82443)

4:39 PM MDT on September 19, 2014 (GMT -0600)
RAWS GRASS CREEK DIVIDE WY US | Change Station
CLOSE
Current Station
Personal Weather Station
Location: Thermopolis, WY
Elevation: 7126 ft
Nearby Weather Stations

Elev 7126 ft 43.89 °N, 108.85 °W | Updated 57 minutes ago

Clear
Clear
74.0 °F
Feels Like 74.0 °F
N
7.0
Wind Variable Wind from SW
Gusts 15.0 mph

Today
High -- | Low -- °F
--% Chance of Precip.
Yesterday
High -- | Low -- °F
Precip. -- in
6:56 AM 7:15 PM
Waning Crescent, 16% visible
Pressure 29.79 in
Visibility 10.0 miles
Clouds Clear
Dew Point 43.0 °F
Humidity 33%
Rainfall 0.00 in
Snow Depth 0 in , 3 in , 0 in
UV 4 out of 12
Pollen 5.20 out of 12
Air Quality Not available.
Flu Activity Not available.
METAR KWRL 192153Z AUTO 16004KT 10SM CLR 27/06 A2991 RMK AO2 SLP088 T02670056

More Conditions Fewer Conditions

Pressure 29.79 in
Visibility 10.0 miles
Clouds Clear
Dew Point 43.0 °F
Humidity 33%
Rainfall 0.00 in
Snow Depth 0 in , 3 in , 0 in
UV 4 out of 12
Pollen 5.20 out of 12
Air Quality Not available.
Flu Activity Not available.
METAR KWRL 192153Z AUTO 16004KT 10SM CLR 27/06 A2991 RMK AO2 SLP088 T02670056

More Conditions Fewer Conditions

10-Day Weather Forecast

Almanac

Astronomy

Sep. 19, 2014 Rise Set
Actual Time 6:56 AM MDT 7:15 PM MDT
Civil Twilight 6:28 AM MDT 7:44 PM MDT
Nautical Twilight 5:54 AM MDT 8:18 PM MDT
Astronomical Twilight 5:19 AM MDT 8:52 PM MDT
Moon 2:38 AM MDT 4:52 PM MDT
Length of Visible Light 13h 16m
Length of Day
12h 18m
Tomorrow will be 2m 59s shorter.
Waning Crescent, 16% of the Moon is Illuminated
Today
Waning Crescent
Sep 24
New
Oct 1
First Quarter
Oct 8
Full
Oct 15
Last Quarter

Today's Extremes

State Highs State Lows

Community

WunderPhotos

Upload Photos

1,754,721 photos uploaded!

WunderBlogs® & News

By Dr. Jeff Masters
Director of Meteorology, Weather Underground
By Kari Strenfel
Meteorologist, Weather Underground
By Christopher C. Burt
Weather Historian, Weather Underground
September 19, 2014
September 19, 2014
September 19, 2014

Nearby

Snow Depth

Station Depth Elevation
Blind Bull Summit 1 in 8900 ft
Hams Fork 0 in 7840 ft
Salt River Summit 0 in 7600 ft
Willow Creek 3 in 8450 ft
Phillips Bench 0 in 8200 ft

Earthquake Activity

City Distance Mag. Time & Date
No recent earthquake activity has been reported nearby.
Minimum magnitude displayed is 2.5.

Coastal Water Temperatures

Place Temperature
No Stations Reporting

Nearby Weather Stations